Time,TemperatureF,DewpointF,PressureIn,WindDirection,WindDirectionDegrees,WindSpeedMPH,WindSpeedGustMPH,Humidity,HourlyPrecipIn,Conditions,Clouds,dailyrainin,SoftwareType,DateUTC
2013-04-29 00:00:00,70.0,-99.9,29.95,East,80,7.0,-999.0,-999,-99.99,,,-99.99,,2013-04-29 05:00:00,
2013-04-29 00:12:00,70.0,-99.9,29.95,East,80,10.0,-999.0,-999,-99.99,,,-99.99,,2013-04-29 05:12:00,
2013-04-29 00:23:00,70.0,-99.9,29.95,East,80,10.0,-999.0,-999,-99.99,,,-99.99,,2013-04-29 05:23:00,
2013-04-29 00:30:00,70.0,-99.9,29.95,East,100,9.0,-999.0,-999,-99.99,,,-99.99,,2013-04-29 05:30:00,
2013-04-29 00:52:00,70.0,-99.9,29.95,East,80,7.0,-999.0,-999,-99.99,,,-99.99,,2013-04-29 05:52:00,
2013-04-29 01:00:00,70.0,-99.9,29.95,East,100,9.0,-999.0,-999,-99.99,,,-99.99,,2013-04-29 06:00:00,
2013-04-29 01:12:00,70.0,-99.9,29.95,East,100,9.0,-999.0,-999,-99.99,,,-99.99,,2013-04-29 06:12:00,
2013-04-29 01:22:00,70.0,-99.9,29.95,East,100,9.0,-999.0,-999,-99.99,,,-99.99,,2013-04-29 06:22:00,
2013-04-29 01:30:00,70.0,-99.9,29.94,ESE,110,10.0,-999.0,-999,-99.99,,,-99.99,,2013-04-29 06:30:00,
2013-04-29 01:42:00,70.0,-99.9,29.95,East,100,9.0,-999.0,-999,-99.99,,,-99.99,,2013-04-29 06:42:00,
2013-04-29 01:52:00,70.0,-99.9,29.95,East,100,9.0,-999.0,-999,-99.99,,,-99.99,,2013-04-29 06:52:00,
2013-04-29 02:00:00,70.0,-99.9,29.95,SE,140,8.0,-999.0,-999,-99.99,,,-99.99,,2013-04-29 07:00:00,
2013-04-29 02:11:00,70.0,-99.9,29.94,ESE,110,10.0,-999.0,-999,-99.99,,,-99.99,,2013-04-29 07:11:00,
2013-04-29 02:22:00,70.0,-99.9,29.94,ESE,110,10.0,-999.0,-999,-99.99,,,-99.99,,2013-04-29 07:22:00,
2013-04-29 02:30:00,71.0,-99.9,29.93,SE,130,10.0,-999.0,-999,-99.99,,,-99.99,,2013-04-29 07:30:00,
2013-04-29 02:52:00,70.0,-99.9,29.95,SE,140,8.0,-999.0,-999,-99.99,,,-99.99,,2013-04-29 07:52:00,
2013-04-29 03:00:00,70.0,-99.9,29.92,SE,130,10.0,-999.0,-999,-99.99,,,-99.99,,2013-04-29 08:00:00,
2013-04-29 03:11:00,71.0,-99.9,29.93,SE,130,10.0,-999.0,-999,-99.99,,,-99.99,,2013-04-29 08:11:00,
2013-04-29 03:22:00,71.0,-99.9,29.93,SE,130,10.0,-999.0,-999,-99.99,,,-99.99,,2013-04-29 08:22:00,
2013-04-29 03:30:00,70.0,-99.9,29.91,East,100,9.0,-999.0,-999,-99.99,,,-99.99,,2013-04-29 08:30:00,
2013-04-29 03:52:00,70.0,-99.9,29.92,SE,130,10.0,-999.0,-999,-99.99,,,-99.99,,2013-04-29 08:52:00,
2013-04-29 04:00:00,69.0,-99.9,29.91,East,100,9.0,-999.0,-999,-99.99,,,-99.99,,2013-04-29 09:00:00,
2013-04-29 04:12:00,70.0,-99.9,29.91,East,100,9.0,-999.0,-999,-99.99,,,-99.99,,2013-04-29 09:12:00,
2013-04-29 04:22:00,70.0,-99.9,29.91,East,100,9.0,-999.0,-999,-99.99,,,-99.99,,2013-04-29 09:22:00,
2013-04-29 04:30:00,70.0,-99.9,29.90,SE,130,11.0,-999.0,-999,-99.99,,,-99.99,,2013-04-29 09:30:00,
2013-04-29 04:53:00,69.0,-99.9,29.91,East,100,9.0,-999.0,-999,-99.99,,,-99.99,,2013-04-29 09:53:00,
2013-04-29 05:00:00,71.0,-99.9,29.92,SSE,150,7.0,-999.0,-999,-99.99,,,-99.99,,2013-04-29 10:00:00,
2013-04-29 05:12:00,70.0,-99.9,29.90,SE,130,11.0,-999.0,-999,-99.99,,,-99.99,,2013-04-29 10:12:00,
2013-04-29 05:23:00,70.0,-99.9,29.90,SE,130,11.0,-999.0,-999,-99.99,,,-99.99,,2013-04-29 10:23:00,
2013-04-29 05:30:00,70.0,-99.9,29.92,North,10,6.0,-999.0,-999,-99.99,,,-99.99,,2013-04-29 10:30:00,
2013-04-29 05:53:00,71.0,-99.9,29.92,SSE,150,7.0,-999.0,-999,-99.99,,,-99.99,,2013-04-29 10:53:00,
2013-04-29 06:00:00,68.0,-99.9,29.93,North,360,15.0,-999.0,-999,-99.99,,,-99.99,,2013-04-29 11:00:00,
2013-04-29 06:22:00,70.0,-99.9,29.92,North,10,6.0,-999.0,-999,-99.99,,,-99.99,,2013-04-29 11:22:00,
2013-04-29 06:30:00,68.0,-99.9,29.93,North,10,13.0,-999.0,-999,-99.99,,,-99.99,,2013-04-29 11:30:00,
2013-04-29 06:52:00,68.0,-99.9,29.93,North,360,15.0,-999.0,-999,-99.99,,,-99.99,,2013-04-29 11:52:00,
2013-04-29 07:00:00,68.0,-99.9,29.94,NNE,30,10.0,-999.0,-999,-99.99,,,-99.99,,2013-04-29 12:00:00,
2013-04-29 07:22:00,68.0,-99.9,29.93,North,10,13.0,-999.0,-999,-99.99,,,-99.99,,2013-04-29 12:22:00,
2013-04-29 07:30:00,68.0,-99.9,29.95,NNE,30,8.0,-999.0,-999,-99.99,,,-99.99,,2013-04-29 12:30:00,
2013-04-29 07:52:00,68.0,-99.9,29.94,NNE,30,10.0,-999.0,-999,-99.99,,,-99.99,,2013-04-29 12:52:00,
2013-04-29 08:00:00,69.0,-99.9,29.96,NNE,20,7.0,-999.0,-999,-99.99,,,-99.99,,2013-04-29 13:00:00,
2013-04-29 08:11:00,68.0,-99.9,29.95,NNE,30,8.0,-999.0,-999,-99.99,,,-99.99,,2013-04-29 13:11:00,
2013-04-29 08:22:00,68.0,-99.9,29.95,NNE,30,8.0,-999.0,-999,-99.99,,,-99.99,,2013-04-29 13:22:00,
2013-04-29 08:30:00,68.0,-99.9,29.96,North,360,16.0,-999.0,-999,-99.99,,,-99.99,,2013-04-29 13:30:00,
2013-04-29 08:52:00,69.0,-99.9,29.96,NNE,20,7.0,-999.0,-999,-99.99,,,-99.99,,2013-04-29 13:52:00,
2013-04-29 09:00:00,69.0,-99.9,29.96,North,10,13.0,-999.0,-999,-99.99,,,-99.99,,2013-04-29 14:00:00,
2013-04-29 09:22:00,68.0,-99.9,29.96,North,360,16.0,-999.0,-999,-99.99,,,-99.99,,2013-04-29 14:22:00,
2013-04-29 09:30:00,69.0,-99.9,29.97,NNE,20,11.0,-999.0,-999,-99.99,,,-99.99,,2013-04-29 14:30:00,
2013-04-29 09:52:00,69.0,-99.9,29.96,North,10,13.0,-999.0,-999,-99.99,,,-99.99,,2013-04-29 14:52:00,
2013-04-29 10:00:00,70.0,-99.9,29.97,North,360,11.0,-999.0,-999,-99.99,,,-99.99,,2013-04-29 15:00:00,
2013-04-29 10:12:00,69.0,-99.9,29.97,NNE,20,11.0,-999.0,-999,-99.99,,,-99.99,,2013-04-29 15:12:00,
2013-04-29 10:22:00,69.0,-99.9,29.97,NNE,20,11.0,-999.0,-999,-99.99,,,-99.99,,2013-04-29 15:22:00,
2013-04-29 10:30:00,72.0,-99.9,29.97,NNE,20,6.0,-999.0,-999,-99.99,,,-99.99,,2013-04-29 15:30:00,
2013-04-29 10:43:00,70.0,-99.9,29.97,North,360,11.0,-999.0,-999,-99.99,,,-99.99,,2013-04-29 15:43:00,
2013-04-29 10:53:00,70.0,-99.9,29.97,North,360,11.0,-999.0,-999,-99.99,,,-99.99,,2013-04-29 15:53:00,
2013-04-29 11:00:00,72.0,-99.9,29.96,North,350,9.0,-999.0,-999,-99.99,,,-99.99,,2013-04-29 16:00:00,
2013-04-29 11:23:00,72.0,-99.9,29.97,NNE,20,6.0,-999.0,-999,-99.99,,,-99.99,,2013-04-29 16:23:00,
2013-04-29 11:30:00,72.0,-99.9,29.96,NNW,340,11.0,-999.0,-999,-99.99,,,-99.99,,2013-04-29 16:30:00,
2013-04-29 11:53:00,72.0,-99.9,29.96,North,350,9.0,-999.0,-999,-99.99,,,-99.99,,2013-04-29 16:53:00,
2013-04-29 12:00:00,74.0,-99.9,29.95,North,360,9.0,-999.0,-999,-99.99,,,-99.99,,2013-04-29 17:00:00,
2013-04-29 12:12:00,72.0,-99.9,29.96,NNW,340,11.0,-999.0,-999,-99.99,,,-99.99,,2013-04-29 17:12:00,
2013-04-29 12:23:00,72.0,-99.9,29.96,NNW,340,11.0,-999.0,-999,-99.99,,,-99.99,,2013-04-29 17:23:00,
2013-04-29 12:30:00,74.0,-99.9,29.94,North,350,8.0,-999.0,-999,-99.99,,,-99.99,,2013-04-29 17:30:00,
2013-04-29 12:52:00,74.0,-99.9,29.95,North,360,9.0,-999.0,-999,-99.99,,,-99.99,,2013-04-29 17:52:00,
2013-04-29 13:00:00,74.0,-99.9,29.94,NNW,340,7.0,-999.0,-999,-99.99,,,-99.99,,2013-04-29 18:00:00,
2013-04-29 13:22:00,74.0,-99.9,29.94,North,350,8.0,-999.0,-999,-99.99,,,-99.99,,2013-04-29 18:22:00,
2013-04-29 13:30:00,76.0,-99.9,29.93,NW,320,2.0,-999.0,-999,-99.99,,,-99.99,,2013-04-29 18:30:00,
2013-04-29 13:52:00,74.0,-99.9,29.94,NNW,340,7.0,-999.0,-999,-99.99,,,-99.99,,2013-04-29 18:52:00,
2013-04-29 14:00:00,77.0,-99.9,29.92,WNW,290,2.0,-999.0,-999,-99.99,,,-99.99,,2013-04-29 19:00:00,
2013-04-29 14:22:00,76.0,-99.9,29.93,NW,320,2.0,-999.0,-999,-99.99,,,-99.99,,2013-04-29 19:22:00,
2013-04-29 14:30:00,78.0,-99.9,29.90,WNW,300,3.0,-999.0,-999,-99.99,,,-99.99,,2013-04-29 19:30:00,
2013-04-29 14:52:00,77.0,-99.9,29.92,WNW,290,2.0,-999.0,-999,-99.99,,,-99.99,,2013-04-29 19:52:00,
2013-04-29 15:00:00,79.0,-99.9,29.89,NW,310,2.0,-999.0,-999,-99.99,,,-99.99,,2013-04-29 20:00:00,
2013-04-29 15:22:00,78.0,-99.9,29.90,WNW,300,3.0,-999.0,-999,-99.99,,,-99.99,,2013-04-29 20:22:00,
2013-04-29 15:30:00,76.0,-99.9,29.88,SW,220,2.0,-999.0,-999,-99.99,,,-99.99,,2013-04-29 20:30:00,
2013-04-29 15:52:00,79.0,-99.9,29.89,NW,310,2.0,-999.0,-999,-99.99,,,-99.99,,2013-04-29 20:52:00,
2013-04-29 16:00:00,76.0,-99.9,29.88,South,180,6.0,-999.0,-999,-99.99,,,-99.99,,2013-04-29 21:00:00,
2013-04-29 16:22:00,76.0,-99.9,29.88,SW,220,2.0,-999.0,-999,-99.99,,,-99.99,,2013-04-29 21:22:00,
2013-04-29 16:30:00,76.0,-99.9,29.87,South,180,5.0,-999.0,-999,-99.99,,,-99.99,,2013-04-29 21:30:00,
2013-04-29 16:53:00,76.0,-99.9,29.88,South,180,6.0,-999.0,-999,-99.99,,,-99.99,,2013-04-29 21:53:00,
2013-04-29 17:00:00,76.0,-99.9,29.87,South,190,9.0,-999.0,-999,-99.99,,,-99.99,,2013-04-29 22:00:00,
2013-04-29 17:13:00,76.0,-99.9,29.87,South,180,5.0,-999.0,-999,-99.99,,,-99.99,,2013-04-29 22:13:00,
2013-04-29 17:23:00,76.0,-99.9,29.87,South,180,5.0,-999.0,-999,-99.99,,,-99.99,,2013-04-29 22:23:00,
2013-04-29 17:30:00,76.0,-99.9,29.87,South,170,10.0,-999.0,-999,-99.99,,,-99.99,,2013-04-29 22:30:00,
2013-04-29 17:53:00,76.0,-99.9,29.87,South,190,9.0,-999.0,-999,-99.99,,,-99.99,,2013-04-29 22:53:00,
2013-04-29 18:00:00,74.0,-99.9,29.87,SSE,160,13.0,-999.0,-999,-99.99,,,-99.99,,2013-04-29 23:00:00,
2013-04-29 18:22:00,76.0,-99.9,29.87,South,170,10.0,-999.0,-999,-99.99,,,-99.99,,2013-04-29 23:22:00,
2013-04-29 18:30:00,73.0,-99.9,29.87,SE,140,14.0,-999.0,-999,-99.99,,,-99.99,,2013-04-29 23:30:00,
2013-04-29 18:53:00,74.0,-99.9,29.87,SSE,160,13.0,-999.0,-999,-99.99,,,-99.99,,2013-04-29 23:53:00,
2013-04-29 19:22:00,73.0,-99.9,29.87,SE,140,14.0,-999.0,-999,-99.99,,,-99.99,,2013-04-30 00:22:00,